地図

経路データ

SID SEASON NUMBER BASIN SUBBASIN NAME ISO_TIME NATURE LAT LON WMO_WIND WMO_PRES WMO_AGENCY TRACK_TYPE DIST2LAND LANDFALL IFLAG USA_AGENCY USA_ATCF_ID USA_LAT USA_LON USA_RECORD USA_STATUS USA_WIND USA_PRES USA_SSHS USA_R34_NE USA_R34_SE USA_R34_SW USA_R34_NW USA_R50_NE USA_R50_SE USA_R50_SW USA_R50_NW USA_R64_NE USA_R64_SE USA_R64_SW USA_R64_NW USA_POCI USA_ROCI USA_RMW USA_EYE TOKYO_LAT TOKYO_LON TOKYO_GRADE TOKYO_WIND TOKYO_PRES TOKYO_R50_DIR TOKYO_R50_LONG TOKYO_R50_SHORT TOKYO_R30_DIR TOKYO_R30_LONG TOKYO_R30_SHORT TOKYO_LAND CMA_LAT CMA_LON CMA_CAT CMA_WIND CMA_PRES HKO_LAT HKO_LON HKO_CAT HKO_WIND HKO_PRES NEWDELHI_LAT NEWDELHI_LON NEWDELHI_GRADE NEWDELHI_WIND NEWDELHI_PRES NEWDELHI_CI NEWDELHI_DP NEWDELHI_POCI REUNION_LAT REUNION_LON REUNION_TYPE REUNION_WIND REUNION_PRES REUNION_TNUM REUNION_CI REUNION_RMW REUNION_R34_NE REUNION_R34_SE REUNION_R34_SW REUNION_R34_NW REUNION_R50_NE REUNION_R50_SE REUNION_R50_SW REUNION_R50_NW REUNION_R64_NE REUNION_R64_SE REUNION_R64_SW REUNION_R64_NW BOM_LAT BOM_LON BOM_TYPE BOM_WIND BOM_PRES BOM_TNUM BOM_CI BOM_RMW BOM_R34_NE BOM_R34_SE BOM_R34_SW BOM_R34_NW BOM_R50_NE BOM_R50_SE BOM_R50_SW BOM_R50_NW BOM_R64_NE BOM_R64_SE BOM_R64_SW BOM_R64_NW BOM_ROCI BOM_POCI BOM_EYE BOM_POS_METHOD BOM_PRES_METHOD NADI_LAT NADI_LON NADI_CAT NADI_WIND NADI_PRES WELLINGTON_LAT WELLINGTON_LON WELLINGTON_WIND WELLINGTON_PRES DS824_LAT DS824_LON DS824_STAGE DS824_WIND DS824_PRES TD9636_LAT TD9636_LON TD9636_STAGE TD9636_WIND TD9636_PRES TD9635_LAT TD9635_LON TD9635_WIND TD9635_PRES TD9635_ROCI NEUMANN_LAT NEUMANN_LON NEUMANN_CLASS NEUMANN_WIND NEUMANN_PRES MLC_LAT MLC_LON MLC_CLASS MLC_WIND MLC_PRES USA_GUST BOM_GUST BOM_GUST_PER REUNION_GUST REUNION_GUST_PER USA_SEAHGT USA_SEARAD_NE USA_SEARAD_SE USA_SEARAD_SW USA_SEARAD_NW STORM_SPEED STORM_DIR
1971269N17116 1971 126 WP MM NOT_NAMED 1971-09-25 12:00:00 TS 16.8000 115.900 main 415 415 __O___________ -1 16.8000 115.900 0 1007 5 258
1971269N17116 1971 126 WP MM NOT_NAMED 1971-09-25 15:00:00 TS 16.7501 115.662 main 436 434 __P___________ -1 16.7501 115.662 0 1007 4 243
1971269N17116 1971 126 WP MM NOT_NAMED 1971-09-25 18:00:00 TS 16.6000 115.500 main 453 449 __O___________ -1 16.6000 115.500 0 1007 5 202
1971269N17116 1971 126 WP MM NOT_NAMED 1971-09-25 21:00:00 TS 16.2999 115.475 main 449 438 __P___________ -1 16.2999 115.475 0 1007 6 171
1971269N17116 1971 126 WP MM NOT_NAMED 1971-09-26 00:00:00 TS 16.0000 115.600 main 438 406 __O___________ -1 16.0000 115.600 0 19 1007 6 137
1971269N17116 1971 126 WP MM NOT_NAMED 1971-09-26 03:00:00 TS 15.9001 115.870 main 406 375 __P___________ -1 15.9001 115.870 0 19 1006 6 109
1971269N17116 1971 126 WP MM NOT_NAMED 1971-09-26 06:00:00 TS 15.8000 116.200 main 375 345 __O___________ -1 15.8000 116.200 0 19 1006 7 120
1971269N17116 1971 126 WP MM NOT_NAMED 1971-09-26 09:00:00 TS 15.5300 116.533 main 347 328 __P___________ -1 15.5300 116.533 0 19 1006 8 141
1971269N17116 1971 126 WP MM NOT_NAMED 1971-09-26 12:00:00 TS 15.2000 116.700 main 333 333 __O___________ -1 15.2000 116.700 0 19 1006 6 176
1971269N17116 1971 126 WP MM NOT_NAMED 1971-09-26 15:00:00 TS 14.8998 116.577 main 354 354 __P___________ -1 14.8998 116.577 0 19 1006 8 219
1971269N17116 1971 126 WP MM NOT_NAMED 1971-09-26 18:00:00 TS 14.6000 116.200 main 406 406 __O___________ -1 14.6000 116.200 0 19 1006 11 236
1971269N17116 1971 126 WP MM NOT_NAMED 1971-09-26 21:00:00 TS 14.2927 115.645 main 478 478 __P___________ -1 14.2927 115.645 0 19 1006 13 243
1971269N17116 1971 126 WP MM NOT_NAMED 1971-09-27 00:00:00 TS 14.0000 115.000 main 550 550 __O___________ -1 14.0000 115.000 0 19 1006 13 246
1971269N17116 1971 126 WP MM NOT_NAMED 1971-09-27 03:00:00 TS 13.7574 114.428 main 539 481 __P___________ -1 13.7574 114.428 0 19 1005 12 245
1971269N17116 1971 126 WP MM NOT_NAMED 1971-09-27 06:00:00 TS 13.5000 113.900 main 481 424 __O___________ -1 13.5000 113.900 0 19 1005 12 239
1971269N17116 1971 126 WP MM NOT_NAMED 1971-09-27 09:00:00 TS 13.1724 113.413 main 424 379 __P___________ -1 13.1724 113.413 0 19 1005 11 231
1971269N17116 1971 126 WP MM NOT_NAMED 1971-09-27 12:00:00 TS 12.8000 113.000 main 379 337 __O___________ -1 12.8000 113.000 0 19 1005 11 224
1971269N17116 1971 126 WP MM NOT_NAMED 1971-09-27 15:00:00 TS 12.3775 112.625 main 337 320 __P___________ -1 12.3775 112.625 0 19 1004 10 216
1971269N17116 1971 126 WP MM NOT_NAMED 1971-09-27 18:00:00 TS 12.0000 112.400 main 322 322 __O___________ -1 12.0000 112.400 0 19 1004 7 200
1971269N17116 1971 126 WP MM NOT_NAMED 1971-09-27 21:00:00 TS 11.7249 112.383 main 331 331 __P___________ -1 11.7249 112.383 0 21 1003 4 167
1971269N17116 1971 126 WP MM NOT_NAMED 1971-09-28 00:00:00 TS 11.6000 112.500 main 345 345 __O___________ -1 11.6000 112.500 1 23 1003 3 109
1971269N17116 1971 126 WP MM NOT_NAMED 1971-09-28 03:00:00 TS 11.6325 112.657 main 365 362 __P___________ -1 11.6325 112.657 1 26 1002 4 56
1971269N17116 1971 126 WP MM NOT_NAMED 1971-09-28 06:00:00 TS 11.8000 112.800 main 369 367 __O___________ -1 11.8000 112.800 1 29 1002 5 26
1971269N17116 1971 126 WP MM NOT_NAMED 1971-09-28 09:00:00 TS 12.0350 112.860 main 375 360 __P___________ -1 12.0350 112.860 1 29 1002 5 2
1971269N17116 1971 126 WP MM NOT_NAMED 1971-09-28 12:00:00 TS 12.3000 112.800 main 360 336 __O___________ -1 12.3000 112.800 1 29 1002 5 330
1971269N17116 1971 126 WP MM NOT_NAMED 1971-09-28 15:00:00 TS 12.5001 112.580 main 336 304 __P___________ -1 12.5001 112.580 1 29 1002 6 309
1971269N17116 1971 126 WP MM NOT_NAMED 1971-09-28 18:00:00 TS 12.7000 112.300 main 304 281 __O___________ -1 12.7000 112.300 1 29 1002 7 311
1971269N17116 1971 126 WP MM NOT_NAMED 1971-09-28 21:00:00 TS 12.9350 112.070 main 281 261 __P___________ -1 12.9350 112.070 1 29 1002 6 322
1971269N17116 1971 126 WP MM NOT_NAMED 1971-09-29 00:00:00 TS 13.2000 111.900 main 262 255 __O___________ -1 13.2000 111.900 1 29 1002 6 339
1971269N17116 1971 126 WP MM NOT_NAMED 1971-09-29 03:00:00 TS 13.5000 111.842 main 258 258 __P___________ -1 13.5000 111.842 1 29 1001 6 351
1971269N17116 1971 126 WP MM NOT_NAMED 1971-09-29 06:00:00 TS 13.8000 111.800 main 268 259 __O___________ -1 13.8000 111.800 1 29 1001 6 342
1971269N17116 1971 126 WP MM NOT_NAMED 1971-09-29 09:00:00 TS 14.0650 111.658 main 260 239 __P___________ -1 14.0650 111.658 1 29 1001 6 330
1971269N17116 1971 126 WP MM NOT_NAMED 1971-09-29 12:00:00 TS 14.3000 111.500 main 241 233 __O___________ -1 14.3000 111.500 1 29 1001 5 331
1971269N17116 1971 126 WP MM NOT_NAMED 1971-09-29 15:00:00 TS 14.5075 111.407 main 236 229 __P___________ -1 14.5075 111.407 1 29 1001 4 334
1971269N17116 1971 126 WP MM NOT_NAMED 1971-09-29 18:00:00 TS 14.7000 111.300 main 233 226 __O___________ -1 14.7000 111.300 1 29 1001 4 326
1971269N17116 1971 126 WP MM NOT_NAMED 1971-09-29 21:00:00 TS 14.8698 111.160 main 226 198 __P___________ -1 14.8698 111.160 1 29 1001 6 316
1971269N17116 1971 126 WP MM NOT_NAMED 1971-09-30 00:00:00 TS 15.1000 110.900 main 198 169 __O___________ -1 15.1000 110.900 1 29 1001 9 311
1971269N17116 1971 126 WP MM NOT_NAMED 1971-09-30 03:00:00 TS 15.4604 110.456 main 174 132 __P___________ -1 15.4604 110.456 1 29 1001 13 310
1971269N17116 1971 126 WP MM NOT_NAMED 1971-09-30 06:00:00 TS 15.9000 109.900 main 132 __O___________ -1 15.9000 109.900 1 29 1001 14 310

デジタル台風データ・検索

IBTrACS Databaseについて

本データベースは、米国NOAAが公開する1842年以降の世界の熱帯低気圧のベストトラックデータアーカイブInternational Best Track Archive for Climate Stewardship (IBTrACS)を、ウェブで閲覧しやすい形式に変換したものです。

最終更新日:2021-10-08